Spring Brook, NY (14140)

9:44 PM EDT on July 27, 2016 (GMT -0400)
Transit - Seneca | | Change Station

Elev 794 ft 42.81 °N, 78.69 °W | Updated 6 seconds ago

Mostly Cloudy
Mostly Cloudy
73.3 °F
Feels Like 75 °F
N
0.0
Wind Variable Wind from West
Gusts 0.0 mph

Today
High -- | Low -- °F
--% Chance of Precip.
Yesterday
High -- | Low -- °F
Precip. -- in
Pressure 29.93 in
Visibility 10.0 miles
Clouds Scattered Clouds 6500 ft
Scattered Clouds 8000 ft
Mostly Cloudy 27000 ft
Heat Index 75 °F
Dew Point 62 °F
Humidity 69%
Rainfall 0.00 in
Snow Depth Not available.
6:01 AM 8:40 PM
Last Quarter, 37% visible
METAR KBUF 280054Z 26006KT 10SM SCT065 SCT080 BKN270 26/18 A2994 RMK AO2 SLP133 TCU DSNT N T02560183
Pressure 29.93 in
Visibility 10.0 miles
Clouds Scattered Clouds 6500 ft
Scattered Clouds 8000 ft
Mostly Cloudy 27000 ft
Heat Index 75 °F
Dew Point 62 °F
Humidity 69%
Rainfall 0.00 in
Snow Depth Not available.
6:01 AM 8:40 PM
Last Quarter, 37% visible
METAR KBUF 280054Z 26006KT 10SM SCT065 SCT080 BKN270 26/18 A2994 RMK AO2 SLP133 TCU DSNT N T02560183

10-Day Weather Forecast

Almanac

Astronomy

Jul. 27, 2016 Rise Set
Actual Time
Civil Twilight
Nautical Twilight
Astronomical Twilight
Moon
Length of Visible Light
Length of Day
Tomorrow will be .
, % of the Moon is Illuminated

Today's Extremes

State Highs State Lows

Community

WunderPhotos

Upload Photos

1,928,005 photos uploaded!

WunderBlog® & News

Nearby

Air Quality

  Air Quality AQ Index Pollutant
Not available.

Snow Depth

Station Depth Elevation

Earthquake Activity

City Distance Mag. Time & Date
Minimum magnitude displayed is 2.5.

Coastal Water Temperatures

Place Temperature

Stations

Nearby Weather Stations

Station Location Temp. Windchill Dew Point Humidity Wind Precip. Elev Updated Type
                   

Watches & Warnings

There are currently no watches in effect.